createdAt,value
2019-02-24T00:01:45.798Z,93.60
2019-02-24T00:04:15.386Z,93.70
2019-02-24T00:06:44.971Z,93.80
2019-02-24T00:09:14.779Z,94.10
2019-02-24T00:11:44.659Z,94.20
2019-02-24T00:14:14.114Z,94.40
2019-02-24T00:16:43.712Z,94.70
2019-02-24T00:19:13.457Z,94.40
2019-02-24T00:21:43.302Z,94.50
2019-02-24T00:24:13.014Z,94.40
2019-02-24T00:26:42.608Z,94.30
2019-02-24T00:29:12.257Z,94.30
2019-02-24T00:31:42.092Z,94.40
2019-02-24T00:34:11.717Z,94.50
2019-02-24T00:36:41.367Z,94.40
2019-02-24T00:39:10.911Z,94.50
2019-02-24T00:41:40.466Z,94.50
2019-02-24T00:44:10.023Z,94.70
2019-02-24T00:46:39.532Z,95.00
2019-02-24T00:49:09.459Z,95.20
2019-02-24T00:51:38.999Z,95.30
2019-02-24T00:54:08.648Z,95.60
2019-02-24T00:56:38.247Z,95.30
2019-02-24T00:59:07.984Z,95.40
2019-02-24T01:01:37.873Z,94.90
2019-02-24T01:04:07.625Z,94.60
2019-02-24T01:06:37.426Z,94.60
2019-02-24T01:09:07.685Z,94.00
2019-02-24T01:11:37.481Z,93.90
2019-02-24T01:14:07.392Z,93.70
2019-02-24T01:16:37.753Z,93.50
2019-02-24T01:19:07.365Z,93.00
2019-02-24T01:21:37.192Z,92.70
2019-02-24T01:24:06.884Z,92.60
2019-02-24T01:26:36.477Z,92.30
2019-02-24T01:29:06.293Z,92.60
2019-02-24T01:31:35.985Z,92.20
2019-02-24T01:34:05.823Z,92.30
2019-02-24T01:36:35.633Z,92.70
2019-02-24T01:39:05.924Z,92.60
2019-02-24T01:41:35.684Z,93.00
2019-02-24T01:44:05.565Z,93.30
2019-02-24T01:46:35.210Z,93.40
2019-02-24T01:49:05.054Z,93.40
2019-02-24T01:51:34.703Z,93.60
2019-02-24T01:54:04.639Z,93.60
2019-02-24T01:56:34.266Z,93.90
2019-02-24T01:59:03.949Z,93.80
2019-02-24T02:01:33.462Z,93.90
2019-02-24T02:04:03.210Z,93.80
2019-02-24T02:06:32.920Z,94.10
2019-02-24T02:09:02.471Z,93.60
2019-02-24T02:11:32.042Z,93.80
2019-02-24T02:14:01.852Z,93.80
2019-02-24T02:16:31.425Z,93.90
2019-02-24T02:19:01.119Z,93.90
2019-02-24T02:21:30.720Z,93.80
2019-02-24T02:24:01.409Z,93.70
2019-02-24T02:26:31.185Z,93.50
2019-02-24T02:29:00.878Z,93.90
2019-02-24T02:31:30.504Z,94.10
2019-02-24T02:34:00.208Z,94.00
2019-02-24T02:36:29.804Z,93.90
2019-02-24T02:39:00.199Z,93.70
2019-02-24T02:41:29.850Z,93.50
2019-02-24T02:43:59.522Z,93.50
2019-02-24T02:46:29.303Z,93.50
2019-02-24T02:48:58.861Z,93.00
2019-02-24T02:51:28.425Z,92.70
2019-02-24T02:53:57.975Z,92.60
2019-02-24T02:56:27.600Z,92.30
2019-02-24T02:58:57.371Z,92.00
2019-02-24T03:01:26.925Z,92.10
2019-02-24T03:03:56.483Z,91.80
2019-02-24T03:06:32.073Z,91.60
2019-02-24T03:09:01.630Z,91.80
2019-02-24T03:11:31.314Z,91.40
2019-02-24T03:14:01.022Z,91.40
2019-02-24T03:16:30.593Z,91.50
2019-02-24T03:19:00.139Z,91.40
2019-02-24T03:21:30.024Z,91.30
2019-02-24T03:23:59.581Z,90.80
2019-02-24T03:26:29.316Z,90.60
2019-02-24T03:29:04.083Z,89.80
2019-02-24T03:31:29.945Z,88.90
2019-02-24T03:33:59.654Z,88.00
2019-02-24T03:36:29.136Z,87.00
2019-02-24T03:38:58.731Z,86.50
2019-02-24T03:41:28.408Z,86.00
2019-02-24T03:43:58.259Z,85.80
2019-02-24T03:46:27.838Z,85.10
2019-02-24T03:48:57.367Z,84.60
2019-02-24T03:51:26.868Z,85.00
2019-02-24T03:53:56.422Z,83.80
2019-02-24T03:56:26.336Z,84.00
2019-02-24T03:58:55.969Z,83.70
2019-02-24T04:01:25.503Z,83.20
2019-02-24T04:03:55.170Z,83.00
2019-02-24T04:06:24.682Z,82.70
2019-02-24T04:08:54.215Z,82.80
2019-02-24T04:11:24.008Z,82.50
2019-02-24T04:13:53.706Z,83.20
2019-02-24T04:16:23.307Z,82.60
2019-02-24T04:18:54.229Z,82.50
2019-02-24T04:21:23.904Z,82.40
2019-02-24T04:23:53.371Z,82.40
2019-02-24T04:26:24.577Z,82.50
2019-02-24T04:28:54.165Z,82.70
2019-02-24T04:31:23.782Z,82.70
2019-02-24T04:33:53.294Z,81.90
2019-02-24T04:36:22.919Z,82.00
2019-02-24T04:38:52.627Z,81.60
2019-02-24T04:41:22.499Z,81.80
2019-02-24T04:43:52.208Z,81.80
2019-02-24T04:46:21.726Z,82.10
2019-02-24T04:48:51.354Z,82.50
2019-02-24T04:51:21.044Z,82.60
2019-02-24T04:53:54.425Z,83.00
2019-02-24T04:56:24.112Z,83.20
2019-02-24T04:58:53.687Z,83.90
2019-02-24T05:01:23.309Z,84.10
2019-02-24T05:03:53.874Z,84.30
2019-02-24T05:06:23.397Z,84.90
2019-02-24T05:08:53.223Z,85.90
2019-02-24T05:11:23.263Z,86.60
2019-02-24T05:13:52.755Z,87.40
2019-02-24T05:16:22.512Z,88.50
2019-02-24T05:18:52.292Z,89.50
2019-02-24T05:21:22.046Z,90.00
2019-02-24T05:23:51.695Z,90.00
2019-02-24T05:26:21.194Z,90.30
2019-02-24T05:28:50.708Z,90.90
2019-02-24T05:31:20.503Z,90.90
2019-02-24T05:33:50.136Z,91.30
2019-02-24T05:36:19.945Z,92.10
2019-02-24T05:38:49.683Z,92.90
2019-02-24T05:41:19.293Z,93.30
2019-02-24T05:43:48.896Z,93.70
2019-02-24T05:46:18.406Z,94.20
2019-02-24T05:48:47.989Z,94.10
2019-02-24T05:51:17.770Z,94.60
2019-02-24T05:53:47.738Z,94.80
2019-02-24T05:56:17.280Z,95.10
2019-02-24T05:58:47.025Z,95.10
2019-02-24T06:01:16.695Z,95.20
2019-02-24T06:03:46.221Z,95.10
2019-02-24T06:06:15.991Z,95.20
2019-02-24T06:08:45.543Z,94.90
2019-02-24T06:11:15.326Z,94.70
2019-02-24T06:13:45.084Z,94.50
2019-02-24T06:16:14.929Z,94.50
2019-02-24T06:18:44.483Z,94.30
2019-02-24T06:21:14.045Z,94.30
2019-02-24T06:23:43.813Z,94.50
2019-02-24T06:26:13.294Z,94.00
2019-02-24T06:28:43.065Z,93.90
2019-02-24T06:31:12.620Z,94.00
2019-02-24T06:33:42.345Z,93.90
2019-02-24T06:36:11.849Z,93.90
2019-02-24T06:38:41.485Z,93.80
2019-02-24T06:41:11.249Z,93.90
2019-02-24T06:43:40.980Z,93.80
2019-02-24T06:46:10.603Z,93.90
2019-02-24T06:48:40.510Z,93.90
2019-02-24T06:51:11.684Z,94.00
2019-02-24T06:53:41.265Z,94.20
2019-02-24T06:56:10.771Z,94.30
2019-02-24T06:58:40.319Z,94.00
2019-02-24T07:01:10.992Z,94.30
2019-02-24T07:03:41.109Z,93.70
2019-02-24T07:06:11.020Z,93.80
2019-02-24T07:08:40.643Z,93.60
2019-02-24T07:11:10.604Z,93.50
2019-02-24T07:13:40.123Z,93.30
2019-02-24T07:16:09.867Z,93.50
2019-02-24T07:18:39.372Z,93.10
2019-02-24T07:21:09.145Z,93.00
2019-02-24T07:23:40.261Z,92.80
2019-02-24T07:26:10.042Z,92.60
2019-02-24T07:28:39.581Z,92.30
2019-02-24T07:31:13.413Z,92.30
2019-02-24T07:33:42.913Z,92.40
2019-02-24T07:36:13.066Z,92.10
2019-02-24T07:38:42.855Z,91.70
2019-02-24T07:41:12.532Z,91.00
2019-02-24T07:43:42.205Z,90.60
2019-02-24T07:46:11.684Z,90.70
2019-02-24T07:48:41.787Z,89.90
2019-02-24T07:51:12.447Z,90.00
2019-02-24T07:53:42.323Z,88.80
2019-02-24T07:56:11.832Z,88.20
2019-02-24T07:58:41.480Z,87.10
2019-02-24T08:01:10.996Z,86.20
2019-02-24T08:03:40.672Z,85.30
2019-02-24T08:06:10.173Z,84.90
2019-02-24T08:08:41.553Z,83.10
2019-02-24T08:11:11.073Z,81.00
2019-02-24T08:13:40.662Z,79.40
2019-02-24T08:16:10.193Z,78.80
2019-02-24T08:18:39.796Z,77.40
2019-02-24T08:21:10.545Z,76.30
2019-02-24T08:23:40.298Z,75.30
2019-02-24T08:26:09.904Z,73.90
2019-02-24T08:28:39.614Z,73.30
2019-02-24T08:31:09.224Z,73.10
2019-02-24T08:33:38.799Z,72.30
2019-02-24T08:36:08.604Z,71.50
2019-02-24T08:38:40.354Z,69.20
2019-02-24T08:41:09.661Z,69.20
2019-02-24T08:43:39.195Z,68.40
2019-02-24T08:46:08.747Z,68.20
2019-02-24T08:48:38.757Z,65.50
2019-02-24T08:51:08.492Z,65.90
2019-02-24T08:53:38.004Z,65.20
2019-02-24T08:56:07.656Z,64.70
2019-02-24T08:58:37.377Z,63.50
2019-02-24T09:01:06.959Z,60.80
2019-02-24T09:03:36.536Z,60.60
2019-02-24T09:06:06.877Z,58.20
2019-02-24T09:08:36.507Z,57.00
2019-02-24T09:11:06.080Z,58.90
2019-02-24T09:13:35.619Z,56.20
2019-02-24T09:16:05.164Z,56.10
2019-02-24T09:18:34.807Z,54.70
2019-02-24T09:21:04.566Z,53.90
2019-02-24T09:23:34.042Z,53.00
2019-02-24T09:26:03.615Z,50.80
2019-02-24T09:28:33.252Z,49.30
2019-02-24T09:31:02.919Z,48.90
2019-02-24T09:33:32.704Z,47.30
2019-02-24T09:36:02.395Z,45.20
2019-02-24T09:38:32.443Z,43.70
2019-02-24T09:41:02.222Z,42.20
2019-02-24T09:43:31.984Z,40.10
2019-02-24T09:46:01.679Z,40.40
2019-02-24T09:48:31.229Z,38.00
2019-02-24T09:51:00.973Z,35.30
2019-02-24T09:53:33.106Z,35.10
2019-02-24T09:56:02.651Z,34.40
2019-02-24T09:58:32.351Z,33.80
2019-02-24T10:01:10.330Z,32.90
2019-02-24T10:03:33.655Z,32.30
2019-02-24T10:06:03.467Z,31.70
2019-02-24T10:08:33.286Z,31.00
2019-02-24T10:11:02.924Z,30.70
2019-02-24T10:13:32.558Z,31.10
2019-02-24T10:16:02.355Z,30.30
2019-02-24T10:18:31.998Z,29.60
2019-02-24T10:21:01.568Z,29.30
2019-02-24T10:23:34.730Z,29.30
2019-02-24T10:26:04.344Z,28.90
2019-02-24T10:28:33.967Z,27.60
2019-02-24T10:31:03.942Z,27.10
2019-02-24T10:33:33.604Z,27.00
2019-02-24T10:36:03.445Z,26.70
2019-02-24T10:38:47.213Z,26.80
2019-02-24T10:41:17.272Z,26.10
2019-02-24T10:43:46.995Z,25.70
2019-02-24T10:46:18.994Z,25.80
2019-02-24T10:48:49.082Z,26.10
2019-02-24T10:51:18.937Z,25.50
2019-02-24T10:53:48.836Z,26.20
2019-02-24T10:56:18.689Z,25.90
2019-02-24T10:58:54.049Z,24.70
2019-02-24T11:01:29.763Z,25.00
2019-02-24T11:04:04.308Z,24.80
2019-02-24T11:06:34.137Z,25.00
2019-02-24T11:09:04.216Z,23.70
2019-02-24T11:11:33.918Z,23.30
2019-02-24T11:14:03.726Z,23.40
2019-02-24T11:16:33.467Z,23.40
2019-02-24T11:19:03.407Z,22.60
2019-02-24T11:21:36.194Z,22.90
2019-02-24T11:24:05.870Z,24.00
2019-02-24T11:26:35.808Z,24.70
2019-02-24T11:29:05.308Z,23.70
2019-02-24T11:31:42.153Z,24.60
2019-02-24T11:34:12.657Z,25.00
2019-02-24T11:36:42.540Z,24.90
2019-02-24T11:39:12.484Z,24.30
2019-02-24T11:41:42.964Z,23.90
2019-02-24T11:44:14.358Z,23.80
2019-02-24T11:46:44.209Z,23.80
2019-02-24T11:49:13.973Z,23.40
2019-02-24T11:51:43.840Z,22.80
2019-02-24T11:54:13.804Z,22.70
2019-02-24T11:56:43.683Z,23.40
2019-02-24T11:59:13.569Z,23.10
2019-02-24T12:01:47.569Z,24.00
2019-02-24T12:04:14.763Z,23.40
2019-02-24T12:06:44.490Z,22.90
2019-02-24T12:09:14.350Z,23.30
2019-02-24T12:11:44.384Z,23.10
2019-02-24T12:14:19.113Z,22.70
2019-02-24T12:16:49.076Z,22.80
2019-02-24T12:19:21.072Z,23.20
2019-02-24T12:21:51.595Z,22.90
2019-02-24T12:24:21.981Z,22.90
2019-02-24T12:26:52.614Z,22.90
2019-02-24T12:29:22.636Z,22.90
2019-02-24T12:31:56.593Z,22.30
2019-02-24T12:34:24.011Z,22.80
2019-02-24T12:36:54.087Z,22.50
2019-02-24T12:39:29.181Z,22.80
2019-02-24T12:41:59.100Z,22.10
2019-02-24T12:44:29.886Z,21.60
2019-02-24T12:47:00.546Z,22.30
2019-02-24T12:49:30.494Z,21.60
2019-02-24T12:52:00.507Z,22.10
2019-02-24T12:54:34.114Z,22.00
2019-02-24T12:57:04.690Z,21.40
2019-02-24T12:59:35.598Z,21.40
2019-02-24T13:02:08.787Z,21.50
2019-02-24T13:04:38.673Z,21.50
2019-02-24T13:07:08.491Z,21.30
2019-02-24T13:09:38.259Z,20.80
2019-02-24T13:12:08.191Z,20.60
2019-02-24T13:14:38.194Z,20.70
2019-02-24T13:17:11.471Z,21.20
2019-02-24T13:19:42.134Z,20.10
2019-02-24T13:22:12.531Z,20.40
2019-02-24T13:24:42.564Z,20.40
2019-02-24T13:27:12.671Z,20.30
2019-02-24T13:29:42.671Z,20.40
2019-02-24T13:32:15.167Z,20.20
2019-02-24T13:34:45.403Z,19.60
2019-02-24T13:37:15.451Z,19.30
2019-02-24T13:39:45.216Z,19.30
2019-02-24T13:42:15.356Z,18.80
2019-02-24T13:44:45.376Z,18.70
2019-02-24T13:47:15.571Z,18.80
2019-02-24T13:49:48.134Z,19.10
2019-02-24T13:52:18.349Z,18.80
2019-02-24T13:54:48.634Z,18.20
2019-02-24T13:57:18.812Z,18.50
2019-02-24T13:59:48.710Z,18.20
2019-02-24T14:02:23.968Z,18.00
2019-02-24T14:04:50.539Z,18.00
2019-02-24T14:07:20.515Z,18.00
2019-02-24T14:09:50.394Z,17.80
2019-02-24T14:12:20.278Z,18.20
2019-02-24T14:14:50.162Z,18.10
2019-02-24T14:17:20.309Z,18.30
2019-02-24T14:19:50.477Z,18.30
2019-02-24T14:22:20.412Z,18.50
2019-02-24T14:24:50.410Z,18.40
2019-02-24T14:27:20.341Z,18.80
2019-02-24T14:29:50.458Z,19.40
2019-02-24T14:32:20.560Z,19.20
2019-02-24T14:34:50.561Z,19.10
2019-02-24T14:37:20.627Z,19.20
2019-02-24T14:39:50.785Z,18.80
2019-02-24T14:42:20.728Z,19.20
2019-02-24T14:44:50.767Z,19.20
2019-02-24T14:47:20.760Z,19.50
2019-02-24T14:49:50.642Z,19.50
2019-02-24T14:52:20.742Z,19.60
2019-02-24T14:54:51.143Z,19.40
2019-02-24T14:57:21.281Z,19.70
2019-02-24T14:59:51.224Z,19.70
2019-02-24T15:02:21.152Z,19.90
2019-02-24T15:04:51.105Z,20.00
2019-02-24T15:07:21.158Z,20.10
2019-02-24T15:09:51.089Z,20.30
2019-02-24T15:12:21.258Z,20.20
2019-02-24T15:14:51.260Z,20.20
2019-02-24T15:17:21.341Z,20.30
2019-02-24T15:19:51.322Z,20.60
2019-02-24T15:22:21.477Z,20.70
2019-02-24T15:24:51.646Z,20.40
2019-02-24T15:27:21.944Z,20.50
2019-02-24T15:29:52.041Z,20.40
2019-02-24T15:32:22.144Z,20.40
2019-02-24T15:34:55.846Z,20.40
2019-02-24T15:37:25.850Z,20.40
2019-02-24T15:39:55.996Z,20.70
2019-02-24T15:42:26.230Z,20.70
2019-02-24T15:44:56.774Z,20.90
2019-02-24T15:47:27.043Z,20.50
2019-02-24T15:49:57.065Z,20.60
2019-02-24T15:52:27.266Z,20.50
2019-02-24T15:54:57.322Z,20.80
2019-02-24T15:57:27.448Z,20.70
2019-02-24T15:59:57.592Z,20.80
2019-02-24T16:02:27.798Z,20.60
2019-02-24T16:04:57.826Z,21.20
2019-02-24T16:07:27.893Z,21.20
2019-02-24T16:09:58.041Z,21.00
2019-02-24T16:12:28.164Z,20.90
2019-02-24T16:14:58.132Z,21.10
2019-02-24T16:17:28.262Z,21.10
2019-02-24T16:19:58.360Z,21.30
2019-02-24T16:22:30.431Z,21.40
2019-02-24T16:25:00.512Z,21.80
2019-02-24T16:27:30.444Z,22.00
2019-02-24T16:30:07.453Z,22.20
2019-02-24T16:32:37.373Z,22.10
2019-02-24T16:35:08.560Z,22.10
2019-02-24T16:37:48.279Z,22.30
2019-02-24T16:40:19.309Z,22.60
2019-02-24T16:42:49.496Z,22.50
2019-02-24T16:45:19.631Z,22.40
2019-02-24T16:47:50.274Z,22.60
2019-02-24T16:50:20.444Z,22.70
2019-02-24T16:52:50.578Z,23.00
2019-02-24T16:55:20.892Z,23.30
2019-02-24T16:57:50.925Z,23.40
2019-02-24T17:00:21.275Z,23.70
2019-02-24T17:02:51.534Z,23.90
2019-02-24T17:05:21.748Z,24.30
2019-02-24T17:07:51.974Z,24.10
2019-02-24T17:10:22.225Z,23.90
2019-02-24T17:12:52.286Z,23.70
2019-02-24T17:15:22.391Z,23.70
2019-02-24T17:17:52.568Z,24.20
2019-02-24T17:20:22.697Z,24.00
2019-02-24T17:22:55.494Z,24.80
2019-02-24T17:25:25.698Z,24.80
2019-02-24T17:27:55.579Z,24.70
2019-02-24T17:30:25.763Z,25.60
2019-02-24T17:32:56.625Z,25.20
2019-02-24T17:35:26.768Z,26.00
2019-02-24T17:37:56.779Z,26.50
2019-02-24T17:40:26.724Z,26.20
2019-02-24T17:42:56.742Z,26.00
2019-02-24T17:45:26.660Z,26.80
2019-02-24T17:47:56.733Z,26.70
2019-02-24T17:50:29.003Z,25.80
2019-02-24T17:52:59.039Z,26.10
2019-02-24T17:55:28.946Z,26.40
2019-02-24T17:57:58.958Z,25.60
2019-02-24T18:00:31.567Z,25.60
2019-02-24T18:03:01.654Z,25.50
2019-02-24T18:05:32.009Z,25.60
2019-02-24T18:08:02.006Z,27.50
2019-02-24T18:10:32.362Z,27.30
2019-02-24T18:13:02.301Z,27.30
2019-02-24T18:18:10.839Z,26.70
2019-02-24T18:20:40.960Z,26.40
2019-02-24T18:23:11.076Z,26.10
2019-02-24T18:25:41.159Z,26.20
2019-02-24T18:28:11.229Z,26.00
2019-02-24T18:30:41.438Z,26.00
2019-02-24T18:33:11.811Z,26.10
2019-02-24T18:35:42.140Z,26.40
2019-02-24T18:38:12.308Z,26.40
2019-02-24T18:40:42.675Z,26.40
2019-02-24T18:43:12.996Z,26.30
2019-02-24T18:45:43.278Z,26.50
2019-02-24T18:48:13.441Z,26.60
2019-02-24T18:50:43.537Z,26.60
2019-02-24T18:53:13.609Z,26.80
2019-02-24T18:55:43.745Z,27.00
2019-02-24T18:58:13.870Z,27.10
2019-02-24T19:00:43.991Z,27.10
2019-02-24T19:03:14.162Z,27.20
2019-02-24T19:05:44.319Z,27.10
2019-02-24T19:08:15.354Z,27.10
2019-02-24T19:10:45.667Z,27.60
2019-02-24T19:13:18.460Z,27.70
2019-02-24T19:15:48.690Z,27.80
2019-02-24T19:18:18.842Z,27.80
2019-02-24T19:20:49.460Z,28.00
2019-02-24T19:23:19.834Z,28.30
2019-02-24T19:25:50.631Z,28.40
2019-02-24T19:28:20.878Z,28.60
2019-02-24T19:30:50.999Z,29.10
2019-02-24T19:33:21.069Z,29.60
2019-02-24T19:35:51.188Z,29.70
2019-02-24T19:38:21.417Z,30.00
2019-02-24T19:40:52.014Z,30.00
2019-02-24T19:43:23.194Z,29.70
2019-02-24T19:45:53.573Z,29.90
2019-02-24T19:48:24.126Z,30.10
2019-02-24T19:50:54.255Z,30.60
2019-02-24T19:53:24.423Z,30.80
2019-02-24T19:55:55.261Z,31.10
2019-02-24T19:58:25.344Z,30.50
2019-02-24T20:00:56.186Z,30.50
2019-02-24T20:03:27.517Z,30.40
2019-02-24T20:05:57.932Z,30.90
2019-02-24T20:08:28.052Z,31.30
2019-02-24T20:11:01.175Z,31.80
2019-02-24T20:13:33.459Z,32.30
2019-02-24T20:16:03.593Z,33.10
2019-02-24T20:18:33.730Z,33.30
2019-02-24T20:21:03.908Z,33.70
2019-02-24T20:23:34.126Z,33.60
2019-02-24T20:26:04.316Z,34.60
2019-02-24T20:28:34.519Z,34.70
2019-02-24T20:31:05.117Z,35.50
2019-02-24T20:33:34.996Z,36.50
2019-02-24T20:36:05.280Z,37.10
2019-02-24T20:38:35.431Z,37.90
2019-02-24T20:41:05.983Z,37.40
2019-02-24T20:43:36.192Z,37.60
2019-02-24T20:46:06.529Z,36.60
2019-02-24T20:48:36.714Z,37.80
2019-02-24T20:51:08.205Z,37.50
2019-02-24T20:53:39.216Z,37.50
2019-02-24T20:56:09.615Z,37.70
2019-02-24T20:58:39.773Z,38.00
2019-02-24T21:01:11.655Z,38.20
2019-02-24T21:03:41.923Z,38.00
2019-02-24T21:06:12.346Z,38.80
2019-02-24T21:08:42.473Z,38.80
2019-02-24T21:11:12.601Z,39.90
2019-02-24T21:13:42.733Z,39.90
2019-02-24T21:16:12.930Z,40.10
2019-02-24T21:18:43.050Z,40.70
2019-02-24T21:21:13.451Z,41.40
2019-02-24T21:23:43.612Z,42.80
2019-02-24T21:26:13.633Z,44.20
2019-02-24T21:28:43.748Z,45.60
2019-02-24T21:31:13.828Z,47.10
2019-02-24T21:33:44.069Z,49.00
2019-02-24T21:36:14.285Z,49.10
2019-02-24T21:38:44.239Z,51.80
2019-02-24T21:41:14.821Z,53.40
2019-02-24T21:43:44.904Z,56.20
2019-02-24T21:46:15.092Z,57.50
2019-02-24T21:48:45.127Z,58.80
2019-02-24T21:51:15.175Z,59.60
2019-02-24T21:53:45.229Z,61.50
2019-02-24T21:56:15.408Z,66.00
2019-02-24T21:58:45.382Z,66.80
2019-02-24T22:01:15.540Z,69.80
2019-02-24T22:03:45.361Z,70.30
2019-02-24T22:06:15.071Z,72.10
2019-02-24T22:08:44.940Z,74.30
2019-02-24T22:11:14.863Z,76.90
2019-02-24T22:13:44.553Z,81.10
2019-02-24T22:16:14.256Z,84.20
2019-02-24T22:18:44.159Z,84.10
2019-02-24T22:21:13.939Z,85.20
2019-02-24T22:23:43.802Z,83.50
2019-02-24T22:26:13.723Z,83.30
2019-02-24T22:28:43.403Z,81.10
2019-02-24T22:31:13.107Z,80.80
2019-02-24T22:33:42.761Z,80.30
2019-02-24T22:36:12.431Z,80.90
2019-02-24T22:38:42.134Z,80.80
2019-02-24T22:41:11.896Z,81.70
2019-02-24T22:43:41.724Z,82.50
2019-02-24T22:46:11.613Z,83.80
2019-02-24T22:48:41.296Z,84.40
2019-02-24T22:51:11.113Z,85.20
2019-02-24T22:53:40.875Z,86.10
2019-02-24T22:56:10.636Z,87.00
2019-02-24T22:58:40.390Z,88.30
2019-02-24T23:01:24.728Z,87.50
2019-02-24T23:04:04.441Z,86.40
2019-02-24T23:06:34.353Z,86.90
2019-02-24T23:09:06.118Z,87.10
2019-02-24T23:11:35.821Z,87.90
2019-02-24T23:14:06.240Z,88.70
2019-02-24T23:16:36.043Z,89.50
2019-02-24T23:19:05.745Z,89.30
2019-02-24T23:21:35.572Z,89.90
2019-02-24T23:24:05.292Z,90.10
2019-02-24T23:26:35.092Z,88.80
2019-02-24T23:29:04.760Z,84.10
2019-02-24T23:31:34.503Z,84.90
2019-02-24T23:34:04.135Z,83.30
2019-02-24T23:36:34.032Z,84.20
2019-02-24T23:39:05.336Z,85.00
2019-02-24T23:41:35.221Z,83.30
2019-02-24T23:44:04.883Z,85.20
2019-02-24T23:46:34.670Z,85.40
2019-02-24T23:49:04.380Z,87.60
2019-02-24T23:51:34.102Z,88.10
2019-02-24T23:54:04.056Z,89.30
2019-02-24T23:56:33.971Z,88.50
2019-02-24T23:59:03.743Z,88.10
